createdAt,value
2019-01-30T00:02:27.771Z,1.10
2019-01-30T00:04:58.982Z,1.20
2019-01-30T00:07:30.055Z,1.20
2019-01-30T00:10:01.138Z,1.20
2019-01-30T00:12:32.754Z,1.20
2019-01-30T00:15:03.893Z,1.20
2019-01-30T00:17:34.993Z,1.20
2019-01-30T00:20:07.149Z,1.20
2019-01-30T00:22:37.847Z,1.10
2019-01-30T00:25:09.033Z,1.20
2019-01-30T00:27:39.673Z,1.20
2019-01-30T00:30:11.751Z,1.10
2019-01-30T00:32:42.971Z,1.10
2019-01-30T00:35:13.787Z,1.00
2019-01-30T00:37:44.408Z,1.10
2019-01-30T00:40:15.413Z,1.10
2019-01-30T00:42:46.530Z,1.20
2019-01-30T00:48:17.352Z,1.20
2019-01-30T00:50:48.110Z,1.10
2019-01-30T00:53:18.886Z,1.10
2019-01-30T00:55:49.598Z,1.20
2019-01-30T00:58:20.437Z,1.20
2019-01-30T01:00:51.154Z,1.30
2019-01-30T01:03:22.170Z,1.20
2019-01-30T01:05:54.610Z,1.20
2019-01-30T01:08:25.418Z,1.20
2019-01-30T01:10:56.753Z,1.20
2019-01-30T01:13:27.597Z,1.20
2019-01-30T01:15:58.069Z,1.10
2019-01-30T01:18:28.852Z,1.00
2019-01-30T01:20:59.887Z,1.10
2019-01-30T01:23:30.477Z,1.10
2019-01-30T01:26:00.989Z,1.00
2019-01-30T01:28:31.475Z,1.00
2019-01-30T01:31:02.007Z,0.90
2019-01-30T01:33:32.631Z,1.10
2019-01-30T01:36:03.198Z,1.10
2019-01-30T01:38:33.657Z,1.10
2019-01-30T01:41:04.478Z,1.10
2019-01-30T01:43:35.408Z,1.10
2019-01-30T01:46:06.102Z,1.00
2019-01-30T01:48:36.566Z,1.00
2019-01-30T01:51:07.208Z,1.00
2019-01-30T01:53:38.885Z,1.00
2019-01-30T01:56:09.750Z,1.00
2019-01-30T01:58:41.216Z,1.00
2019-01-30T02:01:12.020Z,1.00
2019-01-30T02:03:42.740Z,0.90
2019-01-30T02:06:13.533Z,0.90
2019-01-30T02:08:44.150Z,0.80
2019-01-30T02:11:14.992Z,0.90
2019-01-30T02:13:45.814Z,0.90
2019-01-30T02:16:16.370Z,0.90
2019-01-30T02:18:47.604Z,0.90
2019-01-30T02:21:18.682Z,1.00
2019-01-30T02:23:49.631Z,0.90
2019-01-30T02:26:20.685Z,0.80
2019-01-30T02:28:51.345Z,0.80
2019-01-30T02:31:22.319Z,0.80
2019-01-30T02:33:53.420Z,0.80
2019-01-30T02:36:24.357Z,0.80
2019-01-30T02:38:54.966Z,0.80
2019-01-30T02:41:25.562Z,0.90
2019-01-30T02:43:56.129Z,0.90
2019-01-30T02:46:27.063Z,0.90
2019-01-30T02:48:58.763Z,0.90
2019-01-30T02:51:29.853Z,0.90
2019-01-30T02:54:00.699Z,1.00
2019-01-30T02:56:31.607Z,0.90
2019-01-30T02:59:02.275Z,0.90
2019-01-30T03:01:34.968Z,0.90
2019-01-30T03:04:06.064Z,0.80
2019-01-30T03:06:36.687Z,0.80
2019-01-30T03:09:08.724Z,0.80
2019-01-30T03:11:39.841Z,0.80
2019-01-30T03:14:11.455Z,0.70
2019-01-30T03:16:42.428Z,0.70
2019-01-30T03:19:13.235Z,0.70
2019-01-30T03:21:43.864Z,0.70
2019-01-30T03:24:14.391Z,0.60
2019-01-30T03:26:44.967Z,0.70
2019-01-30T03:29:15.906Z,0.70
2019-01-30T03:31:46.467Z,0.80
2019-01-30T03:34:17.093Z,0.70
2019-01-30T03:36:48.777Z,0.60
2019-01-30T03:39:19.322Z,0.60
2019-01-30T03:41:50.133Z,0.60
2019-01-30T03:44:20.749Z,0.60
2019-01-30T03:46:51.571Z,0.60
2019-01-30T03:49:23.012Z,0.60
2019-01-30T03:51:53.813Z,0.60
2019-01-30T03:54:24.751Z,0.60
2019-01-30T03:56:55.437Z,0.60
2019-01-30T03:59:25.903Z,0.60
2019-01-30T04:01:56.610Z,0.60
2019-01-30T04:04:27.072Z,0.60
2019-01-30T04:06:57.703Z,0.60
2019-01-30T04:09:28.303Z,0.60
2019-01-30T04:11:59.217Z,0.50
2019-01-30T04:14:29.968Z,0.50
2019-01-30T04:17:00.621Z,0.60
2019-01-30T04:19:31.139Z,0.60
2019-01-30T04:22:02.015Z,0.60
2019-01-30T04:24:32.885Z,0.60
2019-01-30T04:27:03.482Z,0.40
2019-01-30T04:29:34.088Z,0.30
2019-01-30T04:32:04.943Z,0.30
2019-01-30T04:34:35.531Z,0.30
2019-01-30T04:37:06.300Z,0.30
2019-01-30T04:39:37.160Z,0.30
2019-01-30T04:42:07.709Z,0.30
2019-01-30T04:44:38.368Z,0.30
2019-01-30T04:47:08.951Z,0.30
2019-01-30T04:49:39.629Z,0.20
2019-01-30T04:52:10.483Z,0.30
2019-01-30T04:54:41.211Z,0.20
2019-01-30T04:57:11.803Z,0.20
2019-01-30T04:59:42.762Z,0.10
2019-01-30T05:02:13.274Z,0.10
2019-01-30T05:04:44.145Z,0.10
2019-01-30T05:07:14.612Z,0.10
2019-01-30T05:09:45.432Z,0.10
2019-01-30T05:12:16.444Z,0.10
2019-01-30T05:14:47.872Z,0.10
2019-01-30T05:17:18.657Z,0.10
2019-01-30T05:19:49.653Z,0.20
2019-01-30T05:22:20.536Z,0.20
2019-01-30T05:24:51.222Z,0.20
2019-01-30T05:27:22.186Z,0.10
2019-01-30T05:29:53.319Z,0.10
2019-01-30T05:32:24.287Z,0.10
2019-01-30T05:34:55.068Z,0.10
2019-01-30T05:37:25.886Z,0.20
2019-01-30T05:39:56.674Z,0.20
2019-01-30T05:42:27.604Z,0.20
2019-01-30T05:44:58.137Z,0.10
2019-01-30T05:47:28.879Z,0.10
2019-01-30T05:49:59.685Z,0.00
2019-01-30T05:52:30.407Z,0.00
2019-01-30T05:55:01.007Z,0.00
2019-01-30T05:57:32.186Z,0.00
2019-01-30T06:00:02.775Z,0.00
2019-01-30T06:02:33.679Z,0.00
2019-01-30T06:05:05.034Z,0.00
2019-01-30T06:07:35.605Z,0.10
2019-01-30T06:10:07.697Z,0.10
2019-01-30T06:12:38.705Z,0.10
2019-01-30T06:15:10.129Z,0.00
2019-01-30T06:17:41.274Z,0.10
2019-01-30T06:20:16.051Z,0.10
2019-01-30T06:22:46.718Z,0.10
2019-01-30T06:25:17.600Z,0.10
2019-01-30T06:27:48.765Z,0.10
2019-01-30T06:30:19.971Z,0.10
2019-01-30T06:32:51.034Z,0.00
2019-01-30T06:35:21.977Z,0.00
2019-01-30T06:37:53.898Z,0.00
2019-01-30T06:40:29.998Z,0.00
2019-01-30T06:43:02.625Z,0.00
2019-01-30T06:45:33.187Z,0.00
2019-01-30T06:48:05.248Z,0.00
2019-01-30T06:50:36.084Z,0.00
2019-01-30T06:53:07.386Z,0.00
2019-01-30T06:55:38.274Z,0.00
2019-01-30T06:58:09.334Z,0.00
2019-01-30T07:00:40.681Z,0.00
2019-01-30T07:03:11.449Z,0.10
2019-01-30T07:05:42.463Z,0.10
2019-01-30T07:08:13.478Z,0.20
2019-01-30T07:10:44.579Z,0.20
2019-01-30T07:13:15.397Z,0.20
2019-01-30T07:15:46.257Z,0.30
2019-01-30T07:18:17.132Z,0.30
2019-01-30T07:20:48.283Z,0.30
2019-01-30T07:23:18.955Z,0.30
2019-01-30T07:25:49.845Z,0.30
2019-01-30T07:28:20.754Z,0.30
2019-01-30T07:30:51.799Z,0.30
2019-01-30T07:33:22.707Z,0.30
2019-01-30T07:35:53.747Z,0.30
2019-01-30T07:38:24.577Z,0.40
2019-01-30T07:40:55.577Z,0.40
2019-01-30T07:43:26.484Z,0.40
2019-01-30T07:45:57.317Z,0.40
2019-01-30T07:48:29.030Z,0.50
2019-01-30T07:50:59.813Z,0.60
2019-01-30T07:53:30.706Z,0.60
2019-01-30T07:56:01.560Z,0.60
2019-01-30T07:58:32.500Z,0.60
2019-01-30T08:01:03.343Z,0.70
2019-01-30T08:03:34.298Z,0.70
2019-01-30T08:06:05.652Z,0.80
2019-01-30T08:08:36.594Z,0.80
2019-01-30T08:11:07.592Z,0.80
2019-01-30T08:13:38.652Z,0.90
2019-01-30T08:16:09.610Z,0.90
2019-01-30T08:18:40.817Z,0.90
2019-01-30T08:21:11.520Z,1.00
2019-01-30T08:23:42.623Z,1.10
2019-01-30T08:26:13.379Z,1.10
2019-01-30T08:28:44.011Z,1.10
2019-01-30T08:31:15.345Z,1.10
2019-01-30T08:33:46.127Z,1.20
2019-01-30T08:36:18.428Z,1.10
2019-01-30T08:38:49.378Z,1.10
2019-01-30T08:41:21.610Z,1.20
2019-01-30T08:43:52.321Z,1.10
2019-01-30T08:46:23.295Z,1.10
2019-01-30T08:48:53.906Z,1.20
2019-01-30T08:51:24.785Z,1.20
2019-01-30T08:53:55.531Z,1.20
2019-01-30T08:56:26.443Z,1.10
2019-01-30T08:58:57.551Z,1.10
2019-01-30T09:01:28.875Z,1.00
2019-01-30T09:03:59.912Z,1.00
2019-01-30T09:06:30.733Z,1.10
2019-01-30T09:09:01.615Z,1.00
2019-01-30T09:11:34.252Z,1.00
2019-01-30T09:14:05.158Z,1.00
2019-01-30T09:16:35.982Z,1.10
2019-01-30T09:19:07.344Z,1.10
2019-01-30T09:21:38.236Z,1.20
2019-01-30T09:24:09.143Z,1.30
2019-01-30T09:26:39.842Z,1.30
2019-01-30T09:29:10.378Z,1.40
2019-01-30T09:31:42.405Z,1.50
2019-01-30T09:34:13.031Z,1.50
2019-01-30T09:36:43.840Z,1.60
2019-01-30T09:39:14.478Z,1.60
2019-01-30T09:41:45.517Z,1.70
2019-01-30T09:44:16.126Z,1.70
2019-01-30T09:46:46.968Z,1.80
2019-01-30T09:49:17.878Z,1.90
2019-01-30T09:51:49.162Z,1.90
2019-01-30T09:54:19.879Z,2.00
2019-01-30T09:56:50.833Z,1.90
2019-01-30T09:59:21.919Z,2.00
2019-01-30T10:01:52.709Z,2.00
2019-01-30T10:04:23.690Z,2.10
2019-01-30T10:06:54.391Z,2.10
2019-01-30T10:09:25.538Z,2.10
2019-01-30T10:11:56.509Z,2.10
2019-01-30T10:14:27.404Z,2.20
2019-01-30T10:16:58.083Z,2.20
2019-01-30T10:19:29.042Z,2.30
2019-01-30T10:21:59.695Z,2.40
2019-01-30T10:24:30.651Z,2.50
2019-01-30T10:27:01.639Z,2.50
2019-01-30T10:29:32.585Z,2.60
2019-01-30T10:32:04.004Z,2.70
2019-01-30T10:34:36.019Z,2.90
2019-01-30T10:37:07.427Z,2.90
2019-01-30T10:39:37.996Z,3.00
2019-01-30T10:42:08.699Z,3.10
2019-01-30T10:44:41.131Z,3.10
2019-01-30T10:47:11.884Z,3.20
2019-01-30T10:49:42.655Z,3.30
2019-01-30T10:52:13.270Z,3.40
2019-01-30T10:54:44.219Z,3.40
2019-01-30T10:57:16.445Z,3.50
2019-01-30T10:59:47.460Z,3.60
2019-01-30T11:02:18.195Z,3.60
2019-01-30T11:04:49.154Z,3.60
2019-01-30T11:07:20.010Z,3.60
2019-01-30T11:09:51.302Z,3.50
2019-01-30T11:12:22.342Z,3.40
2019-01-30T11:14:53.560Z,3.40
2019-01-30T11:17:24.353Z,3.30
2019-01-30T11:19:55.756Z,3.40
2019-01-30T11:22:26.534Z,3.40
2019-01-30T11:24:57.591Z,3.40
2019-01-30T11:27:28.393Z,3.40
2019-01-30T11:29:59.152Z,3.50
2019-01-30T11:32:30.487Z,3.70
2019-01-30T11:35:01.467Z,3.70
2019-01-30T11:37:32.348Z,3.70
2019-01-30T11:40:05.105Z,3.70
2019-01-30T11:42:35.762Z,3.60
2019-01-30T11:45:09.864Z,3.50
2019-01-30T11:47:40.717Z,3.40
2019-01-30T11:50:12.620Z,3.20
2019-01-30T11:52:43.532Z,3.20
2019-01-30T11:55:14.891Z,3.10
2019-01-30T11:57:46.769Z,3.00
2019-01-30T12:00:29.862Z,2.90
2019-01-30T12:03:00.788Z,2.90
2019-01-30T12:05:31.491Z,3.00
2019-01-30T12:08:02.268Z,2.90
2019-01-30T12:10:34.067Z,2.80
2019-01-30T12:13:05.611Z,2.90
2019-01-30T12:15:38.560Z,2.90
2019-01-30T12:18:09.285Z,2.90
2019-01-30T12:20:40.289Z,2.90
2019-01-30T12:23:11.434Z,3.00
2019-01-30T12:25:42.044Z,3.10
2019-01-30T12:28:13.303Z,3.10
2019-01-30T12:30:43.830Z,3.10
2019-01-30T12:33:14.786Z,3.10
2019-01-30T12:35:45.357Z,3.10
2019-01-30T12:38:16.262Z,3.10
2019-01-30T12:40:48.532Z,3.10
2019-01-30T12:43:19.975Z,3.20
2019-01-30T12:45:50.575Z,3.20
2019-01-30T12:48:22.756Z,3.20
2019-01-30T12:50:54.047Z,3.20
2019-01-30T12:53:24.928Z,3.30
2019-01-30T12:55:55.811Z,3.20
2019-01-30T12:58:26.885Z,3.20
2019-01-30T13:00:57.965Z,3.30
2019-01-30T13:03:29.045Z,3.40
2019-01-30T13:06:00.044Z,3.30
2019-01-30T13:08:30.926Z,3.40
2019-01-30T13:11:01.631Z,3.30
2019-01-30T13:13:32.434Z,3.30
2019-01-30T13:16:03.487Z,3.30
2019-01-30T13:18:34.293Z,3.30
2019-01-30T13:21:05.247Z,3.30
2019-01-30T13:23:36.040Z,3.30
2019-01-30T13:26:07.170Z,3.20
2019-01-30T13:28:37.921Z,3.20
2019-01-30T13:31:08.680Z,3.20
2019-01-30T13:33:40.764Z,3.30
2019-01-30T13:36:11.853Z,3.30
2019-01-30T13:38:42.559Z,3.30
2019-01-30T13:41:13.964Z,3.20
2019-01-30T13:43:44.597Z,3.20
2019-01-30T13:46:15.769Z,3.10
2019-01-30T13:48:46.290Z,3.00
2019-01-30T13:51:17.319Z,3.00
2019-01-30T13:53:48.318Z,2.90
2019-01-30T13:56:18.933Z,2.90
2019-01-30T13:58:49.774Z,2.80
2019-01-30T14:01:20.828Z,2.70
2019-01-30T14:03:51.806Z,2.60
2019-01-30T14:06:22.631Z,2.60
2019-01-30T14:08:53.764Z,2.50
2019-01-30T14:11:24.689Z,2.50
2019-01-30T14:13:55.320Z,2.50
2019-01-30T14:16:26.226Z,2.50
2019-01-30T14:19:00.040Z,2.50
2019-01-30T14:21:30.673Z,2.40
2019-01-30T14:24:01.872Z,2.40
2019-01-30T14:26:32.680Z,2.30
2019-01-30T14:29:03.293Z,2.30
2019-01-30T14:31:34.340Z,2.30
2019-01-30T14:34:05.608Z,2.30
2019-01-30T14:36:36.475Z,2.30
2019-01-30T14:39:09.654Z,2.30
2019-01-30T14:41:41.083Z,2.20
2019-01-30T14:44:12.051Z,2.20
2019-01-30T14:46:43.373Z,2.20
2019-01-30T14:49:14.216Z,2.10
2019-01-30T14:51:45.404Z,2.10
2019-01-30T14:54:16.440Z,2.10
2019-01-30T14:56:47.265Z,2.00
2019-01-30T14:59:17.948Z,2.00
2019-01-30T15:01:49.973Z,1.90
2019-01-30T15:04:20.913Z,1.90
2019-01-30T15:06:51.993Z,1.80
2019-01-30T15:09:22.900Z,1.80
2019-01-30T15:11:54.030Z,1.80
2019-01-30T15:14:25.664Z,1.70
2019-01-30T15:16:56.180Z,1.60
2019-01-30T15:19:28.245Z,1.60
2019-01-30T15:21:59.020Z,1.60
2019-01-30T15:24:29.649Z,1.50
2019-01-30T15:27:00.299Z,1.50
2019-01-30T15:29:31.030Z,1.50
2019-01-30T15:32:01.868Z,1.40
2019-01-30T15:34:32.310Z,1.40
2019-01-30T15:37:02.956Z,1.30
2019-01-30T15:39:33.780Z,1.30
2019-01-30T15:42:04.957Z,1.20
2019-01-30T15:44:35.674Z,1.20
2019-01-30T15:47:06.552Z,1.20
2019-01-30T15:49:37.594Z,1.10
2019-01-30T15:52:08.286Z,1.10
2019-01-30T15:54:38.957Z,1.10
2019-01-30T15:57:09.977Z,1.10
2019-01-30T15:59:40.986Z,1.00
2019-01-30T16:02:11.911Z,1.00
2019-01-30T16:04:42.933Z,0.90
2019-01-30T16:07:14.161Z,1.00
2019-01-30T16:09:45.252Z,0.90
2019-01-30T16:12:16.099Z,0.90
2019-01-30T16:14:47.061Z,0.80
2019-01-30T16:17:17.678Z,0.80
2019-01-30T16:19:49.391Z,0.80
2019-01-30T16:22:21.489Z,0.70
2019-01-30T16:24:52.685Z,0.80
2019-01-30T16:27:23.610Z,0.80
2019-01-30T16:29:54.891Z,0.70
2019-01-30T16:32:25.979Z,0.60
2019-01-30T16:34:57.637Z,0.60
2019-01-30T16:37:28.456Z,0.60
2019-01-30T16:39:59.607Z,0.50
2019-01-30T16:42:30.506Z,0.60
2019-01-30T16:45:02.606Z,0.50
2019-01-30T16:47:33.996Z,0.40
2019-01-30T16:50:04.985Z,0.40
2019-01-30T16:52:35.887Z,0.40
2019-01-30T16:55:07.992Z,0.50
2019-01-30T16:57:40.774Z,0.50
2019-01-30T17:00:21.606Z,0.50
2019-01-30T17:02:52.934Z,0.50
2019-01-30T17:05:24.032Z,0.40
2019-01-30T17:07:55.197Z,0.50
2019-01-30T17:10:26.680Z,0.40
2019-01-30T17:12:57.825Z,0.40
2019-01-30T17:15:30.955Z,0.40
2019-01-30T17:18:02.211Z,0.50
2019-01-30T17:20:35.427Z,0.50
2019-01-30T17:23:06.729Z,0.40
2019-01-30T17:25:39.869Z,0.40
2019-01-30T17:28:11.510Z,0.40
2019-01-30T17:30:58.187Z,0.40
2019-01-30T17:33:29.500Z,0.40
2019-01-30T17:36:00.724Z,0.40
2019-01-30T17:38:31.911Z,0.40
2019-01-30T17:41:03.248Z,0.40
2019-01-30T17:43:34.431Z,0.40
2019-01-30T17:46:05.640Z,0.40
2019-01-30T17:48:37.042Z,0.40
2019-01-30T17:51:08.217Z,0.40
2019-01-30T17:53:39.542Z,0.40
2019-01-30T17:56:10.582Z,0.40
2019-01-30T17:58:41.873Z,0.40
2019-01-30T18:01:13.027Z,0.40
2019-01-30T18:03:44.373Z,0.40
2019-01-30T18:06:15.113Z,0.50
2019-01-30T18:08:46.563Z,0.50
2019-01-30T18:11:17.723Z,0.40
2019-01-30T18:13:48.788Z,0.60
2019-01-30T18:16:19.808Z,0.60
2019-01-30T18:18:50.891Z,0.70
2019-01-30T18:21:22.100Z,0.70
2019-01-30T18:23:52.758Z,0.70
2019-01-30T18:26:23.750Z,0.70
2019-01-30T18:28:54.844Z,0.70
2019-01-30T18:31:25.994Z,0.70
2019-01-30T18:33:57.217Z,0.70
2019-01-30T18:36:28.567Z,0.80
2019-01-30T18:38:59.624Z,0.70
2019-01-30T18:41:31.163Z,0.80
2019-01-30T18:44:02.308Z,0.80
2019-01-30T18:46:33.368Z,0.80
2019-01-30T18:49:04.286Z,0.70
2019-01-30T18:51:35.394Z,0.70
2019-01-30T18:54:06.645Z,0.70
2019-01-30T18:56:37.682Z,0.70
2019-01-30T18:59:08.847Z,0.80
2019-01-30T19:01:39.893Z,0.90
2019-01-30T19:04:12.270Z,0.90
2019-01-30T19:06:52.004Z,0.90
2019-01-30T19:09:16.371Z,0.90
2019-01-30T19:11:48.090Z,1.00
2019-01-30T19:14:19.065Z,1.10
2019-01-30T19:16:49.930Z,1.00
2019-01-30T19:19:20.878Z,1.10
2019-01-30T19:21:52.075Z,1.10
2019-01-30T19:24:23.127Z,1.10
2019-01-30T19:26:53.792Z,1.10
2019-01-30T19:29:24.480Z,1.10
2019-01-30T19:31:55.611Z,1.20
2019-01-30T19:34:26.710Z,1.20
2019-01-30T19:37:03.689Z,1.20
2019-01-30T19:39:30.909Z,1.20
2019-01-30T19:42:02.193Z,1.20
2019-01-30T19:44:33.447Z,1.20
2019-01-30T19:47:04.420Z,1.20
2019-01-30T19:49:35.386Z,1.20
2019-01-30T19:52:06.741Z,1.20
2019-01-30T19:54:38.329Z,1.30
2019-01-30T19:57:09.753Z,1.30
2019-01-30T19:59:40.623Z,1.30
2019-01-30T20:02:11.994Z,1.30
2019-01-30T20:04:42.836Z,1.30
2019-01-30T20:07:15.117Z,1.30
2019-01-30T20:09:46.094Z,1.30
2019-01-30T20:12:18.916Z,1.30
2019-01-30T20:14:50.320Z,1.30
2019-01-30T20:17:21.289Z,1.30
2019-01-30T20:19:52.472Z,1.30
2019-01-30T20:22:23.279Z,1.30
2019-01-30T20:24:54.583Z,1.30
2019-01-30T20:27:26.678Z,1.30
2019-01-30T20:29:57.698Z,1.30
2019-01-30T20:32:28.531Z,1.30
2019-01-30T20:35:00.322Z,1.40
2019-01-30T20:37:31.476Z,1.40
2019-01-30T20:40:02.506Z,1.40
2019-01-30T20:42:33.480Z,1.30
2019-01-30T20:45:05.252Z,1.30
2019-01-30T20:47:36.047Z,1.40
2019-01-30T20:50:09.002Z,1.30
2019-01-30T20:52:40.237Z,1.40
2019-01-30T20:55:11.859Z,1.40
2019-01-30T20:57:42.791Z,1.40
2019-01-30T21:00:20.403Z,1.50
2019-01-30T21:02:51.516Z,1.50
2019-01-30T21:05:22.693Z,1.60
2019-01-30T21:07:53.614Z,1.50
2019-01-30T21:10:26.909Z,1.60
2019-01-30T21:12:57.766Z,1.50
2019-01-30T21:15:28.573Z,1.50
2019-01-30T21:17:59.554Z,1.50
2019-01-30T21:20:30.186Z,1.50
2019-01-30T21:23:01.043Z,1.40
2019-01-30T21:25:32.219Z,1.40
2019-01-30T21:28:03.111Z,1.40
2019-01-30T21:30:35.879Z,1.40
2019-01-30T21:33:08.355Z,1.40
2019-01-30T21:35:39.412Z,1.40
2019-01-30T21:38:10.048Z,1.40
2019-01-30T21:40:41.073Z,1.40
2019-01-30T21:43:11.685Z,1.40
2019-01-30T21:45:42.606Z,1.40
2019-01-30T21:48:13.690Z,1.40
2019-01-30T21:50:44.806Z,1.40
2019-01-30T21:53:15.708Z,1.40
2019-01-30T21:55:46.673Z,1.40
2019-01-30T21:58:17.980Z,1.40
2019-01-30T22:00:49.175Z,1.40
2019-01-30T22:03:20.205Z,1.50
2019-01-30T22:05:51.025Z,1.50
2019-01-30T22:08:22.683Z,1.50
2019-01-30T22:10:54.852Z,1.50
2019-01-30T22:13:25.410Z,1.60
2019-01-30T22:15:56.920Z,1.50
2019-01-30T22:18:27.714Z,1.50
2019-01-30T22:20:58.654Z,1.50
2019-01-30T22:23:29.402Z,1.50
2019-01-30T22:26:00.341Z,1.50
2019-01-30T22:28:30.816Z,1.50
2019-01-30T22:31:01.868Z,1.50
2019-01-30T22:33:33.686Z,1.40
2019-01-30T22:36:04.566Z,1.40
2019-01-30T22:38:35.122Z,1.40
2019-01-30T22:41:06.180Z,1.30
2019-01-30T22:43:36.803Z,1.40
2019-01-30T22:46:07.671Z,1.40
2019-01-30T22:48:38.563Z,1.30
2019-01-30T22:51:09.374Z,1.30
2019-01-30T22:53:40.052Z,1.40
2019-01-30T22:56:11.576Z,1.40
2019-01-30T22:58:42.388Z,1.30
2019-01-30T23:01:37.853Z,1.30
2019-01-30T23:04:22.257Z,1.30
2019-01-30T23:07:20.136Z,1.30
2019-01-30T23:10:43.085Z,1.30
2019-01-30T23:13:34.379Z,1.30
2019-01-30T23:16:40.019Z,1.30
2019-01-30T23:19:34.220Z,1.20
2019-01-30T23:22:16.007Z,1.20
2019-01-30T23:25:17.562Z,1.20
2019-01-30T23:28:19.728Z,1.10
2019-01-30T23:31:07.595Z,1.10
2019-01-30T23:34:13.982Z,1.00
2019-01-30T23:37:10.121Z,1.00
2019-01-30T23:40:30.661Z,1.10
2019-01-30T23:43:34.272Z,1.00
2019-01-30T23:46:31.813Z,1.10
2019-01-30T23:49:47.107Z,1.10
2019-01-30T23:52:48.711Z,1.10
2019-01-30T23:55:54.418Z,1.20
2019-01-30T23:59:06.785Z,1.20
